sensor_id;sensor_type;location;lat;lon;timestamp;pressure;altitude;pressure_sealevel;temperature;humidity
23574;BME280;11965;53.640;10.050;2023-04-02T00:01:23;101448.88;;;0.85;91.02
23574;BME280;11965;53.640;10.050;2023-04-02T00:04:04;101451.72;;;0.83;94.95
23574;BME280;11965;53.640;10.050;2023-04-02T00:06:35;101460.78;;;0.84;93.55
23574;BME280;11965;53.640;10.050;2023-04-02T00:09:25;101457.47;;;0.92;92.21
23574;BME280;11965;53.640;10.050;2023-04-02T00:11:57;101464.19;;;0.99;89.49
23574;BME280;11965;53.640;10.050;2023-04-02T00:14:28;101475.09;;;0.99;89.63
23574;BME280;11965;53.640;10.050;2023-04-02T00:16:57;101476.03;;;1.10;88.72
23574;BME280;11965;53.640;10.050;2023-04-02T00:19:32;101475.72;;;1.26;85.93
23574;BME280;11965;53.640;10.050;2023-04-02T00:22:04;101475.94;;;1.23;87.23
23574;BME280;11965;53.640;10.050;2023-04-02T00:24:33;101484.66;;;1.28;86.63
23574;BME280;11965;53.640;10.050;2023-04-02T00:27:02;101484.88;;;1.25;86.20
23574;BME280;11965;53.640;10.050;2023-04-02T00:29:29;101478.41;;;1.15;87.47
23574;BME280;11965;53.640;10.050;2023-04-02T00:31:58;101483.22;;;1.12;87.33
23574;BME280;11965;53.640;10.050;2023-04-02T00:34:30;101494.44;;;1.20;86.67
23574;BME280;11965;53.640;10.050;2023-04-02T00:36:59;101493.22;;;1.24;86.09
23574;BME280;11965;53.640;10.050;2023-04-02T00:39:29;101499.66;;;1.23;86.13
23574;BME280;11965;53.640;10.050;2023-04-02T00:41:59;101496.53;;;1.16;86.59
23574;BME280;11965;53.640;10.050;2023-04-02T00:44:36;101507.09;;;1.21;86.36
23574;BME280;11965;53.640;10.050;2023-04-02T00:47:13;101511.91;;;1.17;86.67
23574;BME280;11965;53.640;10.050;2023-04-02T00:49:42;101514.31;;;1.22;85.92
23574;BME280;11965;53.640;10.050;2023-04-02T00:52:13;101513.66;;;1.18;86.69
23574;BME280;11965;53.640;10.050;2023-04-02T00:54:46;101517.56;;;1.27;85.13
23574;BME280;11965;53.640;10.050;2023-04-02T00:57:18;101526.38;;;1.30;84.76
23574;BME280;11965;53.640;10.050;2023-04-02T00:59:55;101527.13;;;1.32;85.27
23574;BME280;11965;53.640;10.050;2023-04-02T01:02:28;101527.63;;;1.26;85.46
23574;BME280;11965;53.640;10.050;2023-04-02T01:04:58;101536.97;;;1.35;82.43
23574;BME280;11965;53.640;10.050;2023-04-02T01:07:51;101544.03;;;1.38;81.88
23574;BME280;11965;53.640;10.050;2023-04-02T01:10:41;101555.59;;;1.41;81.08
23574;BME280;11965;53.640;10.050;2023-04-02T01:13:22;101552.63;;;1.20;84.33
23574;BME280;11965;53.640;10.050;2023-04-02T01:16:00;101557.53;;;1.28;81.96
23574;BME280;11965;53.640;10.050;2023-04-02T01:18:45;101567.63;;;1.15;84.73
23574;BME280;11965;53.640;10.050;2023-04-02T01:24:13;101578.22;;;1.19;84.61
23574;BME280;11965;53.640;10.050;2023-04-02T01:26:53;101583.25;;;1.13;86.00
23574;BME280;11965;53.640;10.050;2023-04-02T01:29:28;101583.19;;;1.01;86.29
23574;BME280;11965;53.640;10.050;2023-04-02T01:32:00;101589.75;;;0.99;87.91
23574;BME280;11965;53.640;10.050;2023-04-02T01:34:29;101590.44;;;0.90;87.87
23574;BME280;11965;53.640;10.050;2023-04-02T01:37:09;101591.22;;;0.92;88.70
23574;BME280;11965;53.640;10.050;2023-04-02T01:39:59;101604.06;;;1.02;86.84
23574;BME280;11965;53.640;10.050;2023-04-02T01:42:37;101594.44;;;0.97;86.57
23574;BME280;11965;53.640;10.050;2023-04-02T01:45:11;101600.38;;;0.91;87.61
23574;BME280;11965;53.640;10.050;2023-04-02T01:47:41;101608.25;;;0.82;88.08
23574;BME280;11965;53.640;10.050;2023-04-02T01:50:21;101607.59;;;0.92;87.59
23574;BME280;11965;53.640;10.050;2023-04-02T01:52:50;101612.38;;;0.88;89.06
23574;BME280;11965;53.640;10.050;2023-04-02T01:55:29;101617.44;;;0.81;88.96
23574;BME280;11965;53.640;10.050;2023-04-02T01:57:59;101625.50;;;0.83;90.08
23574;BME280;11965;53.640;10.050;2023-04-02T02:00:31;101627.66;;;0.91;88.20
23574;BME280;11965;53.640;10.050;2023-04-02T02:03:01;101622.34;;;0.76;90.58
23574;BME280;11965;53.640;10.050;2023-04-02T02:05:29;101633.28;;;0.76;90.04
23574;BME280;11965;53.640;10.050;2023-04-02T02:07:58;101639.59;;;0.77;90.04
23574;BME280;11965;53.640;10.050;2023-04-02T02:10:28;101635.69;;;0.68;90.94
23574;BME280;11965;53.640;10.050;2023-04-02T02:12:58;101639.72;;;0.62;92.81
23574;BME280;11965;53.640;10.050;2023-04-02T02:15:26;101640.28;;;0.55;93.78
23574;BME280;11965;53.640;10.050;2023-04-02T02:17:59;101645.06;;;0.64;91.56
23574;BME280;11965;53.640;10.050;2023-04-02T02:20:29;101654.47;;;0.60;91.58
23574;BME280;11965;53.640;10.050;2023-04-02T02:22:57;101656.09;;;0.62;91.05
23574;BME280;11965;53.640;10.050;2023-04-02T02:25:27;101654.78;;;0.55;93.53
23574;BME280;11965;53.640;10.050;2023-04-02T02:28:01;101653.78;;;0.56;93.00
23574;BME280;11965;53.640;10.050;2023-04-02T02:30:35;101661.88;;;0.58;91.32
23574;BME280;11965;53.640;10.050;2023-04-02T02:33:13;101664.28;;;0.50;93.99
23574;BME280;11965;53.640;10.050;2023-04-02T02:35:47;101670.75;;;0.49;93.16
23574;BME280;11965;53.640;10.050;2023-04-02T02:38:36;101671.06;;;0.44;94.91
23574;BME280;11965;53.640;10.050;2023-04-02T02:41:17;101674.88;;;0.41;93.92
23574;BME280;11965;53.640;10.050;2023-04-02T02:43:57;101681.28;;;0.53;92.55
23574;BME280;11965;53.640;10.050;2023-04-02T02:46:28;101688.75;;;0.51;93.80
23574;BME280;11965;53.640;10.050;2023-04-02T02:49:01;101684.03;;;0.40;96.24
23574;BME280;11965;53.640;10.050;2023-04-02T02:51:39;101698.88;;;0.36;96.52
23574;BME280;11965;53.640;10.050;2023-04-02T02:54:13;101702.59;;;0.35;97.05
23574;BME280;11965;53.640;10.050;2023-04-02T02:56:47;101711.28;;;0.28;95.51
23574;BME280;11965;53.640;10.050;2023-04-02T02:59:19;101715.41;;;0.20;96.34
23574;BME280;11965;53.640;10.050;2023-04-02T03:01:48;101712.03;;;0.17;97.91
23574;BME280;11965;53.640;10.050;2023-04-02T03:04:20;101711.25;;;0.15;96.77
23574;BME280;11965;53.640;10.050;2023-04-02T03:06:54;101721.66;;;0.22;96.89
23574;BME280;11965;53.640;10.050;2023-04-02T03:09:34;101715.72;;;0.16;99.76
23574;BME280;11965;53.640;10.050;2023-04-02T03:12:18;101730.91;;;0.20;98.76
23574;BME280;11965;53.640;10.050;2023-04-02T03:14:58;101730.72;;;0.36;96.67
23574;BME280;11965;53.640;10.050;2023-04-02T03:17:33;101739.69;;;0.38;95.49
23574;BME280;11965;53.640;10.050;2023-04-02T03:20:13;101743.38;;;0.37;96.39
23574;BME280;11965;53.640;10.050;2023-04-02T03:22:50;101750.13;;;0.31;98.49
23574;BME280;11965;53.640;10.050;2023-04-02T03:25:30;101753.63;;;0.33;98.95
23574;BME280;11965;53.640;10.050;2023-04-02T03:28:04;101761.59;;;0.36;98.00
23574;BME280;11965;53.640;10.050;2023-04-02T03:30:40;101761.16;;;0.42;98.32
23574;BME280;11965;53.640;10.050;2023-04-02T03:33:14;101769.88;;;0.48;97.52
23574;BME280;11965;53.640;10.050;2023-04-02T03:35:48;101768.72;;;0.52;96.26
23574;BME280;11965;53.640;10.050;2023-04-02T03:38:26;101776.34;;;0.47;97.49
23574;BME280;11965;53.640;10.050;2023-04-02T03:41:02;101778.94;;;0.48;96.88
23574;BME280;11965;53.640;10.050;2023-04-02T03:43:38;101786.38;;;0.46;96.73
23574;BME280;11965;53.640;10.050;2023-04-02T03:46:19;101797.16;;;0.48;97.54
23574;BME280;11965;53.640;10.050;2023-04-02T03:48:52;101795.53;;;0.45;99.86
23574;BME280;11965;53.640;10.050;2023-04-02T03:51:26;101799.91;;;0.48;97.86
23574;BME280;11965;53.640;10.050;2023-04-02T03:53:57;101800.16;;;0.57;97.13
23574;BME280;11965;53.640;10.050;2023-04-02T03:56:30;101809.41;;;0.55;97.66
23574;BME280;11965;53.640;10.050;2023-04-02T03:59:13;101810.72;;;0.49;97.13
23574;BME280;11965;53.640;10.050;2023-04-02T04:01:47;101815.41;;;0.47;98.79
23574;BME280;11965;53.640;10.050;2023-04-02T04:04:19;101827.16;;;0.48;100.00
23574;BME280;11965;53.640;10.050;2023-04-02T04:06:51;101828.38;;;0.43;100.00
23574;BME280;11965;53.640;10.050;2023-04-02T04:09:23;101829.47;;;0.41;100.00
23574;BME280;11965;53.640;10.050;2023-04-02T04:11:58;101837.94;;;0.36;100.00
23574;BME280;11965;53.640;10.050;2023-04-02T04:14:31;101843.09;;;0.41;100.00
23574;BME280;11965;53.640;10.050;2023-04-02T04:17:09;101852.56;;;0.35;100.00
23574;BME280;11965;53.640;10.050;2023-04-02T04:19:45;101850.59;;;0.37;99.03
23574;BME280;11965;53.640;10.050;2023-04-02T04:22:19;101853.22;;;0.39;98.74
23574;BME280;11965;53.640;10.050;2023-04-02T04:25:02;101853.44;;;0.36;100.00
23574;BME280;11965;53.640;10.050;2023-04-02T04:27:37;101857.81;;;0.38;99.61
23574;BME280;11965;53.640;10.050;2023-04-02T04:30:16;101857.38;;;0.44;98.55
23574;BME280;11965;53.640;10.050;2023-04-02T04:32:53;101869.38;;;0.42;98.77
23574;BME280;11965;53.640;10.050;2023-04-02T04:35:27;101868.00;;;0.49;100.00
23574;BME280;11965;53.640;10.050;2023-04-02T04:38:03;101868.72;;;0.38;100.00
23574;BME280;11965;53.640;10.050;2023-04-02T04:40:36;101874.03;;;0.27;100.00
23574;BME280;11965;53.640;10.050;2023-04-02T04:43:16;101880.88;;;0.20;100.00
23574;BME280;11965;53.640;10.050;2023-04-02T04:45:49;101887.19;;;0.20;100.00
23574;BME280;11965;53.640;10.050;2023-04-02T04:48:25;101892.22;;;0.27;100.00
23574;BME280;11965;53.640;10.050;2023-04-02T04:50:59;101895.78;;;0.41;100.00
23574;BME280;11965;53.640;10.050;2023-04-02T04:53:29;101896.22;;;0.48;100.00
23574;BME280;11965;53.640;10.050;2023-04-02T04:56:02;101904.31;;;0.50;100.00
23574;BME280;11965;53.640;10.050;2023-04-02T04:58:44;101906.47;;;0.44;100.00
23574;BME280;11965;53.640;10.050;2023-04-02T05:01:21;101915.44;;;0.47;100.00
23574;BME280;11965;53.640;10.050;2023-04-02T05:03:58;101908.78;;;0.51;100.00
23574;BME280;11965;53.640;10.050;2023-04-02T05:06:38;101924.69;;;0.71;100.00
23574;BME280;11965;53.640;10.050;2023-04-02T05:09:16;101918.19;;;0.86;98.12
23574;BME280;11965;53.640;10.050;2023-04-02T05:11:52;101926.06;;;1.04;98.05
23574;BME280;11965;53.640;10.050;2023-04-02T05:14:30;101931.09;;;1.10;97.20
23574;BME280;11965;53.640;10.050;2023-04-02T05:17:04;101935.41;;;1.27;96.58
23574;BME280;11965;53.640;10.050;2023-04-02T05:19:40;101942.31;;;1.45;91.72
23574;BME280;11965;53.640;10.050;2023-04-02T05:22:19;101943.81;;;1.49;92.97
23574;BME280;11965;53.640;10.050;2023-04-02T05:24:58;101949.94;;;1.66;91.29
23574;BME280;11965;53.640;10.050;2023-04-02T05:27:38;101954.09;;;1.71;90.82
23574;BME280;11965;53.640;10.050;2023-04-02T05:30:27;101963.38;;;1.82;88.59
23574;BME280;11965;53.640;10.050;2023-04-02T05:33:02;101964.56;;;1.90;89.21
23574;BME280;11965;53.640;10.050;2023-04-02T05:35:35;101971.59;;;1.94;88.14
23574;BME280;11965;53.640;10.050;2023-04-02T05:38:04;101973.94;;;2.12;86.17
23574;BME280;11965;53.640;10.050;2023-04-02T05:40:38;101977.66;;;2.24;86.98
23574;BME280;11965;53.640;10.050;2023-04-02T05:43:09;101962.31;;;2.34;84.66
23574;BME280;11965;53.640;10.050;2023-04-02T05:45:51;101974.66;;;2.39;84.67
23574;BME280;11965;53.640;10.050;2023-04-02T05:48:25;101979.22;;;2.52;83.80
23574;BME280;11965;53.640;10.050;2023-04-02T05:50:56;101977.25;;;2.54;85.56
23574;BME280;11965;53.640;10.050;2023-04-02T05:53:33;101980.38;;;2.60;85.12
23574;BME280;11965;53.640;10.050;2023-04-02T05:56:10;101980.66;;;2.69;82.25
23574;BME280;11965;53.640;10.050;2023-04-02T05:58:46;101988.44;;;2.75;82.98
23574;BME280;11965;53.640;10.050;2023-04-02T06:01:38;101997.28;;;2.78;81.22
23574;BME280;11965;53.640;10.050;2023-04-02T06:04:21;101985.03;;;2.71;83.41
23574;BME280;11965;53.640;10.050;2023-04-02T06:07:06;101990.34;;;2.61;83.03
23574;BME280;11965;53.640;10.050;2023-04-02T06:09:46;102003.84;;;2.52;82.62
23574;BME280;11965;53.640;10.050;2023-04-02T06:12:27;102010.66;;;2.46;84.88
23574;BME280;11965;53.640;10.050;2023-04-02T06:14:58;102001.56;;;2.46;84.57
23574;BME280;11965;53.640;10.050;2023-04-02T06:17:33;102012.19;;;2.50;85.06
23574;BME280;11965;53.640;10.050;2023-04-02T06:20:14;102018.25;;;2.67;82.29
23574;BME280;11965;53.640;10.050;2023-04-02T06:22:47;102010.22;;;2.76;81.79
23574;BME280;11965;53.640;10.050;2023-04-02T06:25:21;102022.94;;;3.01;77.52
23574;BME280;11965;53.640;10.050;2023-04-02T06:27:55;102020.84;;;3.05;78.55
23574;BME280;11965;53.640;10.050;2023-04-02T06:30:27;102023.66;;;3.27;76.42
23574;BME280;11965;53.640;10.050;2023-04-02T06:32:57;102035.53;;;3.28;75.18
23574;BME280;11965;53.640;10.050;2023-04-02T06:35:26;102037.84;;;3.21;77.51
23574;BME280;11965;53.640;10.050;2023-04-02T06:38:01;102054.47;;;3.31;75.12
23574;BME280;11965;53.640;10.050;2023-04-02T06:40:38;102048.16;;;3.42;73.82
23574;BME280;11965;53.640;10.050;2023-04-02T06:43:33;102052.38;;;3.46;72.61
23574;BME280;11965;53.640;10.050;2023-04-02T06:46:22;102056.00;;;3.46;72.08
23574;BME280;11965;53.640;10.050;2023-04-02T06:49:11;102065.50;;;3.53;75.08
23574;BME280;11965;53.640;10.050;2023-04-02T06:51:44;102076.88;;;3.60;74.86
23574;BME280;11965;53.640;10.050;2023-04-02T06:54:14;102072.66;;;3.67;71.71
23574;BME280;11965;53.640;10.050;2023-04-02T06:56:46;102084.75;;;3.76;76.16
23574;BME280;11965;53.640;10.050;2023-04-02T06:59:26;102085.53;;;3.89;73.28
23574;BME280;11965;53.640;10.050;2023-04-02T07:01:59;102101.44;;;4.08;71.70
23574;BME280;11965;53.640;10.050;2023-04-02T07:04:28;102082.22;;;4.08;68.61
23574;BME280;11965;53.640;10.050;2023-04-02T07:06:56;102095.19;;;3.95;69.61
23574;BME280;11965;53.640;10.050;2023-04-02T07:09:27;102094.56;;;4.03;69.70
23574;BME280;11965;53.640;10.050;2023-04-02T07:11:57;102098.47;;;4.11;69.80
23574;BME280;11965;53.640;10.050;2023-04-02T07:14:26;102097.31;;;4.03;69.57
23574;BME280;11965;53.640;10.050;2023-04-02T07:16:53;102096.06;;;3.95;70.73
23574;BME280;11965;53.640;10.050;2023-04-02T07:19:21;102097.03;;;3.94;70.46
23574;BME280;11965;53.640;10.050;2023-04-02T07:21:53;102104.31;;;4.07;70.21
23574;BME280;11965;53.640;10.050;2023-04-02T07:24:22;102113.91;;;4.12;69.59
23574;BME280;11965;53.640;10.050;2023-04-02T07:26:49;102106.72;;;4.23;72.91
23574;BME280;11965;53.640;10.050;2023-04-02T07:29:16;102124.72;;;4.38;70.85
23574;BME280;11965;53.640;10.050;2023-04-02T07:31:46;102117.09;;;4.53;72.38
23574;BME280;11965;53.640;10.050;2023-04-02T07:34:13;102116.97;;;4.54;69.46
23574;BME280;11965;53.640;10.050;2023-04-02T07:36:40;102140.66;;;4.44;70.47
23574;BME280;11965;53.640;10.050;2023-04-02T07:39:06;102148.91;;;4.33;69.73
23574;BME280;11965;53.640;10.050;2023-04-02T07:41:50;102148.75;;;4.23;69.39
23574;BME280;11965;53.640;10.050;2023-04-02T07:44:17;102135.63;;;4.15;68.78
23574;BME280;11965;53.640;10.050;2023-04-02T07:46:45;102151.47;;;4.12;69.99
23574;BME280;11965;53.640;10.050;2023-04-02T07:49:12;102175.50;;;4.08;70.62
23574;BME280;11965;53.640;10.050;2023-04-02T07:51:40;102157.03;;;3.99;71.07
23574;BME280;11965;53.640;10.050;2023-04-02T07:54:07;102163.53;;;3.98;71.43
23574;BME280;11965;53.640;10.050;2023-04-02T07:56:36;102184.13;;;4.04;70.62
23574;BME280;11965;53.640;10.050;2023-04-02T07:59:04;102169.91;;;4.10;72.26
23574;BME280;11965;53.640;10.050;2023-04-02T08:01:32;102177.84;;;4.37;71.04
23574;BME280;11965;53.640;10.050;2023-04-02T08:04:03;102177.50;;;4.53;70.35
23574;BME280;11965;53.640;10.050;2023-04-02T08:06:32;102190.75;;;4.70;69.20
23574;BME280;11965;53.640;10.050;2023-04-02T08:08:59;102186.00;;;4.83;70.23
23574;BME280;11965;53.640;10.050;2023-04-02T08:11:26;102186.75;;;4.85;69.77
23574;BME280;11965;53.640;10.050;2023-04-02T08:13:53;102192.50;;;4.71;66.79
23574;BME280;11965;53.640;10.050;2023-04-02T08:16:20;102199.88;;;4.59;70.22
23574;BME280;11965;53.640;10.050;2023-04-02T08:18:48;102213.81;;;4.56;68.22
23574;BME280;11965;53.640;10.050;2023-04-02T08:21:17;102215.16;;;4.51;67.99
23574;BME280;11965;53.640;10.050;2023-04-02T08:23:45;102212.34;;;4.63;66.05
23574;BME280;11965;53.640;10.050;2023-04-02T08:26:16;102217.06;;;4.73;66.03
23574;BME280;11965;53.640;10.050;2023-04-02T08:28:43;102213.34;;;4.85;65.74
23574;BME280;11965;53.640;10.050;2023-04-02T08:31:10;102219.34;;;5.01;65.78
23574;BME280;11965;53.640;10.050;2023-04-02T08:33:37;102222.34;;;5.32;64.84
23574;BME280;11965;53.640;10.050;2023-04-02T08:36:05;102228.09;;;5.40;63.11
23574;BME280;11965;53.640;10.050;2023-04-02T08:38:33;102221.03;;;5.59;65.54
23574;BME280;11965;53.640;10.050;2023-04-02T08:41:01;102224.38;;;5.73;64.13
23574;BME280;11965;53.640;10.050;2023-04-02T08:43:53;102220.34;;;5.78;63.14
23574;BME280;11965;53.640;10.050;2023-04-02T08:46:25;102230.94;;;6.05;63.29
23574;BME280;11965;53.640;10.050;2023-04-02T08:49:00;102231.63;;;6.39;62.63
23574;BME280;11965;53.640;10.050;2023-04-02T08:51:33;102225.84;;;6.84;61.40
23574;BME280;11965;53.640;10.050;2023-04-02T08:54:10;102234.56;;;6.58;59.81
23574;BME280;11965;53.640;10.050;2023-04-02T08:56:47;102242.75;;;6.70;59.70
23574;BME280;11965;53.640;10.050;2023-04-02T08:59:26;102246.00;;;6.63;60.40
23574;BME280;11965;53.640;10.050;2023-04-02T09:02:10;102248.88;;;6.20;61.09
23574;BME280;11965;53.640;10.050;2023-04-02T09:04:45;102257.84;;;6.01;59.43
23574;BME280;11965;53.640;10.050;2023-04-02T09:07:14;102266.44;;;5.64;63.17
23574;BME280;11965;53.640;10.050;2023-04-02T09:09:46;102277.56;;;5.29;62.91
23574;BME280;11965;53.640;10.050;2023-04-02T09:12:17;102280.19;;;5.42;63.08
23574;BME280;11965;53.640;10.050;2023-04-02T09:14:59;102276.69;;;5.51;63.81
23574;BME280;11965;53.640;10.050;2023-04-02T09:17:31;102283.41;;;5.81;63.17
23574;BME280;11965;53.640;10.050;2023-04-02T09:20:02;102281.16;;;5.97;61.42
23574;BME280;11965;53.640;10.050;2023-04-02T09:22:32;102281.59;;;5.91;62.48
23574;BME280;11965;53.640;10.050;2023-04-02T09:25:04;102286.75;;;5.95;62.16
23574;BME280;11965;53.640;10.050;2023-04-02T09:27:33;102307.34;;;6.12;60.59
23574;BME280;11965;53.640;10.050;2023-04-02T09:30:05;102293.56;;;6.24;59.01
23574;BME280;11965;53.640;10.050;2023-04-02T09:32:47;102288.66;;;6.27;61.07
23574;BME280;11965;53.640;10.050;2023-04-02T09:35:16;102300.09;;;6.44;59.55
23574;BME280;11965;53.640;10.050;2023-04-02T09:37:44;102296.09;;;6.48;60.80
23574;BME280;11965;53.640;10.050;2023-04-02T09:40:24;102302.03;;;6.64;60.35
23574;BME280;11965;53.640;10.050;2023-04-02T09:43:05;102307.13;;;6.90;61.34
23574;BME280;11965;53.640;10.050;2023-04-02T09:45:36;102315.16;;;6.60;53.08
23574;BME280;11965;53.640;10.050;2023-04-02T09:48:20;102316.56;;;6.55;56.73
23574;BME280;11965;53.640;10.050;2023-04-02T09:50:48;102325.63;;;6.78;56.10
23574;BME280;11965;53.640;10.050;2023-04-02T09:53:28;102320.56;;;6.62;56.64
23574;BME280;11965;53.640;10.050;2023-04-02T09:56:09;102334.44;;;6.60;53.73
23574;BME280;11965;53.640;10.050;2023-04-02T09:58:36;102332.97;;;6.56;54.15
23574;BME280;11965;53.640;10.050;2023-04-02T10:01:04;102323.63;;;6.69;58.36
23574;BME280;11965;53.640;10.050;2023-04-02T10:03:34;102333.69;;;6.70;57.09
23574;BME280;11965;53.640;10.050;2023-04-02T10:06:07;102337.31;;;6.70;56.37
23574;BME280;11965;53.640;10.050;2023-04-02T10:08:35;102331.91;;;6.69;53.12
23574;BME280;11965;53.640;10.050;2023-04-02T10:11:08;102333.25;;;6.74;55.50
23574;BME280;11965;53.640;10.050;2023-04-02T10:13:45;102339.34;;;7.10;54.59
23574;BME280;11965;53.640;10.050;2023-04-02T10:16:20;102341.25;;;7.19;56.79
23574;BME280;11965;53.640;10.050;2023-04-02T10:18:54;102340.84;;;7.24;54.78
23574;BME280;11965;53.640;10.050;2023-04-02T10:21:25;102358.50;;;6.91;54.38
23574;BME280;11965;53.640;10.050;2023-04-02T10:23:54;102358.66;;;6.57;55.89
23574;BME280;11965;53.640;10.050;2023-04-02T10:26:45;102360.00;;;6.62;55.78
23574;BME280;11965;53.640;10.050;2023-04-02T10:29:27;102375.72;;;6.51;55.10
23574;BME280;11965;53.640;10.050;2023-04-02T10:32:04;102372.25;;;6.70;52.29
23574;BME280;11965;53.640;10.050;2023-04-02T10:34:42;102378.84;;;6.78;55.33
23574;BME280;11965;53.640;10.050;2023-04-02T10:37:43;102381.38;;;6.70;52.30
23574;BME280;11965;53.640;10.050;2023-04-02T10:40:20;102376.00;;;6.69;58.48
23574;BME280;11965;53.640;10.050;2023-04-02T10:43:03;102384.03;;;6.93;57.52
23574;BME280;11965;53.640;10.050;2023-04-02T10:45:42;102400.28;;;6.75;56.88
23574;BME280;11965;53.640;10.050;2023-04-02T10:48:21;102409.31;;;6.66;55.01
23574;BME280;11965;53.640;10.050;2023-04-02T10:50:58;102413.47;;;6.60;54.51
23574;BME280;11965;53.640;10.050;2023-04-02T10:53:35;102419.38;;;6.55;56.00
23574;BME280;11965;53.640;10.050;2023-04-02T10:56:09;102430.63;;;6.63;54.02
23574;BME280;11965;53.640;10.050;2023-04-02T10:58:49;102429.06;;;6.82;53.26
23574;BME280;11965;53.640;10.050;2023-04-02T11:01:24;102427.25;;;6.92;54.82
23574;BME280;11965;53.640;10.050;2023-04-02T11:03:59;102428.34;;;6.80;52.48
23574;BME280;11965;53.640;10.050;2023-04-02T11:06:31;102425.44;;;6.81;52.56
23574;BME280;11965;53.640;10.050;2023-04-02T11:09:05;102434.28;;;6.96;53.31
23574;BME280;11965;53.640;10.050;2023-04-02T11:11:40;102433.69;;;6.81;49.87
23574;BME280;11965;53.640;10.050;2023-04-02T11:14:14;102428.19;;;6.81;54.21
23574;BME280;11965;53.640;10.050;2023-04-02T11:16:43;102431.78;;;6.93;51.58
23574;BME280;11965;53.640;10.050;2023-04-02T11:19:24;102438.22;;;6.82;52.29
23574;BME280;11965;53.640;10.050;2023-04-02T11:21:53;102432.06;;;6.79;53.32
23574;BME280;11965;53.640;10.050;2023-04-02T11:24:34;102433.53;;;6.94;50.47
23574;BME280;11965;53.640;10.050;2023-04-02T11:27:05;102444.78;;;7.23;52.60
23574;BME280;11965;53.640;10.050;2023-04-02T11:29:36;102445.38;;;7.27;49.09
23574;BME280;11965;53.640;10.050;2023-04-02T11:32:32;102432.22;;;7.10;51.43
23574;BME280;11965;53.640;10.050;2023-04-02T11:37:51;102460.41;;;7.34;55.47
23574;BME280;11965;53.640;10.050;2023-04-02T11:40:42;102461.41;;;7.33;54.91
23574;BME280;11965;53.640;10.050;2023-04-02T11:46:45;102471.03;;;6.85;53.93
23574;BME280;11965;53.640;10.050;2023-04-02T11:49:35;102474.16;;;6.81;53.03
23574;BME280;11965;53.640;10.050;2023-04-02T11:52:21;102464.44;;;6.66;52.85
23574;BME280;11965;53.640;10.050;2023-04-02T11:55:04;102479.47;;;6.73;53.80
23574;BME280;11965;53.640;10.050;2023-04-02T11:57:54;102472.94;;;6.74;48.27
23574;BME280;11965;53.640;10.050;2023-04-02T12:03:57;102497.25;;;6.80;50.30
23574;BME280;11965;53.640;10.050;2023-04-02T12:06:39;102489.84;;;6.80;47.23
23574;BME280;11965;53.640;10.050;2023-04-02T12:09:19;102492.78;;;6.56;50.73
23574;BME280;11965;53.640;10.050;2023-04-02T12:11:47;102508.41;;;6.67;52.67
23574;BME280;11965;53.640;10.050;2023-04-02T12:14:42;102506.22;;;6.93;54.19
23574;BME280;11965;53.640;10.050;2023-04-02T12:17:17;102506.44;;;6.90;51.82
23574;BME280;11965;53.640;10.050;2023-04-02T12:19:53;102507.66;;;6.65;51.33
23574;BME280;11965;53.640;10.050;2023-04-02T12:22:22;102510.53;;;6.63;52.72
23574;BME280;11965;53.640;10.050;2023-04-02T12:24:53;102509.91;;;6.60;53.23
23574;BME280;11965;53.640;10.050;2023-04-02T12:27:25;102519.44;;;6.67;52.29
23574;BME280;11965;53.640;10.050;2023-04-02T12:29:53;102521.91;;;6.81;54.00
23574;BME280;11965;53.640;10.050;2023-04-02T12:32:26;102513.22;;;6.97;50.03
23574;BME280;11965;53.640;10.050;2023-04-02T12:34:56;102523.75;;;6.92;50.40
23574;BME280;11965;53.640;10.050;2023-04-02T12:37:27;102524.28;;;6.86;49.62
23574;BME280;11965;53.640;10.050;2023-04-02T12:39:57;102531.53;;;6.87;51.91
23574;BME280;11965;53.640;10.050;2023-04-02T12:42:27;102514.50;;;6.93;53.48
23574;BME280;11965;53.640;10.050;2023-04-02T12:44:55;102514.94;;;7.10;50.32
23574;BME280;11965;53.640;10.050;2023-04-02T12:47:22;102519.75;;;7.17;50.37
23574;BME280;11965;53.640;10.050;2023-04-02T12:49:49;102520.47;;;6.98;51.57
23574;BME280;11965;53.640;10.050;2023-04-02T12:52:21;102522.53;;;6.74;50.46
23574;BME280;11965;53.640;10.050;2023-04-02T12:54:51;102510.06;;;6.47;50.47
23574;BME280;11965;53.640;10.050;2023-04-02T12:57:32;102522.44;;;6.53;52.30
23574;BME280;11965;53.640;10.050;2023-04-02T13:00:00;102528.34;;;6.59;53.48
23574;BME280;11965;53.640;10.050;2023-04-02T13:02:42;102529.41;;;6.91;50.23
23574;BME280;11965;53.640;10.050;2023-04-02T13:05:10;102525.66;;;6.80;50.75
23574;BME280;11965;53.640;10.050;2023-04-02T13:07:38;102541.84;;;6.62;52.75
23574;BME280;11965;53.640;10.050;2023-04-02T13:10:24;102529.63;;;6.88;51.26
23574;BME280;11965;53.640;10.050;2023-04-02T13:12:55;102534.50;;;6.95;51.67
23574;BME280;11965;53.640;10.050;2023-04-02T13:15:26;102546.06;;;6.89;48.59
23574;BME280;11965;53.640;10.050;2023-04-02T13:18:04;102542.72;;;6.63;50.93
23574;BME280;11965;53.640;10.050;2023-04-02T13:20:33;102539.03;;;6.85;48.41
23574;BME280;11965;53.640;10.050;2023-04-02T13:23:29;102559.63;;;6.81;50.66
23574;BME280;11965;53.640;10.050;2023-04-02T13:25:59;102565.41;;;6.67;50.42
23574;BME280;11965;53.640;10.050;2023-04-02T13:28:26;102559.63;;;6.70;50.47
23574;BME280;11965;53.640;10.050;2023-04-02T13:30:53;102549.59;;;6.80;49.24
23574;BME280;11965;53.640;10.050;2023-04-02T13:33:20;102548.22;;;6.63;49.71
23574;BME280;11965;53.640;10.050;2023-04-02T13:35:47;102556.34;;;6.76;51.18
23574;BME280;11965;53.640;10.050;2023-04-02T13:38:14;102553.09;;;6.82;53.37
23574;BME280;11965;53.640;10.050;2023-04-02T13:40:42;102551.69;;;6.88;52.26